createdAt,value
2023-05-25T00:01:04.896Z,110
2023-05-25T00:02:29.624Z,112
2023-05-25T00:03:36.830Z,113
2023-05-25T00:04:45.557Z,107
2023-05-25T00:07:57.562Z,118
2023-05-25T00:09:53.915Z,123
2023-05-25T00:11:09.891Z,119
2023-05-25T00:12:47.529Z,114
2023-05-25T00:13:57.548Z,120
2023-05-25T00:15:05.570Z,110
2023-05-25T00:16:12.783Z,112
2023-05-25T00:17:22.496Z,120
2023-05-25T00:18:33.544Z,116
2023-05-25T00:19:40.394Z,112
2023-05-25T00:20:55.403Z,112
2023-05-25T00:22:02.370Z,103
2023-05-25T00:23:11.868Z,109
2023-05-25T00:24:19.745Z,104
2023-05-25T00:25:26.724Z,99
2023-05-25T00:26:42.539Z,103
2023-05-25T00:30:10.484Z,103
2023-05-25T00:31:17.761Z,116
2023-05-25T00:32:24.548Z,119
2023-05-25T00:33:39.655Z,113
2023-05-25T00:34:59.100Z,112
2023-05-25T00:36:06.058Z,108
2023-05-25T00:37:12.912Z,111
2023-05-25T00:38:19.711Z,100
2023-05-25T00:39:26.627Z,103
2023-05-25T00:40:33.414Z,103
2023-05-25T00:41:49.744Z,98
2023-05-25T00:42:56.640Z,103
2023-05-25T00:44:03.409Z,102
2023-05-25T00:45:10.236Z,100
2023-05-25T00:46:17.350Z,99
2023-05-25T00:47:24.172Z,102
2023-05-25T00:48:31.081Z,94
2023-05-25T00:49:38.859Z,92
2023-05-25T00:50:45.759Z,91
2023-05-25T00:51:52.482Z,88
2023-05-25T00:52:59.304Z,92
2023-05-25T00:54:06.472Z,87
2023-05-25T00:55:13.329Z,92
2023-05-25T00:56:20.109Z,87
2023-05-25T00:57:35.877Z,85
2023-05-25T00:58:42.737Z,81
2023-05-25T00:59:49.486Z,80
2023-05-25T01:00:56.331Z,86
2023-05-25T01:02:03.211Z,76
2023-05-25T01:03:12.958Z,73
2023-05-25T01:04:19.714Z,80
2023-05-25T01:05:26.714Z,93
2023-05-25T01:06:33.494Z,85
2023-05-25T01:07:40.283Z,87
2023-05-25T01:08:47.105Z,88
2023-05-25T01:09:53.965Z,84
2023-05-25T01:11:00.728Z,89
2023-05-25T01:12:07.537Z,87
2023-05-25T01:13:14.326Z,82
2023-05-25T01:14:21.155Z,80
2023-05-25T01:15:28.019Z,86
2023-05-25T01:16:34.865Z,89
2023-05-25T01:17:41.653Z,91
2023-05-25T01:18:48.457Z,84
2023-05-25T01:20:08.722Z,87
2023-05-25T01:21:02.208Z,106
2023-05-25T01:22:19.097Z,108
2023-05-25T01:23:31.448Z,103
2023-05-25T01:24:38.281Z,100
2023-05-25T01:25:48.101Z,99
2023-05-25T01:26:54.922Z,99
2023-05-25T01:28:01.745Z,99
2023-05-25T01:29:11.320Z,97
2023-05-25T01:30:18.110Z,100
2023-05-25T01:31:24.917Z,100
2023-05-25T01:32:31.684Z,96
2023-05-25T01:33:38.468Z,100
2023-05-25T01:34:45.211Z,106
2023-05-25T01:35:52.051Z,106
2023-05-25T01:36:58.844Z,109
2023-05-25T01:38:05.626Z,108
2023-05-25T01:39:12.437Z,103
2023-05-25T01:40:19.258Z,103
2023-05-25T01:41:26.030Z,107
2023-05-25T01:42:32.813Z,103
2023-05-25T01:43:39.782Z,101
2023-05-25T01:44:46.697Z,110
2023-05-25T01:45:53.560Z,113
2023-05-25T01:47:00.280Z,109
2023-05-25T01:48:07.120Z,106
2023-05-25T01:49:17.018Z,107
2023-05-25T01:50:28.865Z,104
2023-05-25T01:51:40.725Z,99
2023-05-25T01:52:52.657Z,114
2023-05-25T01:54:02.081Z,119
2023-05-25T01:55:08.827Z,112
2023-05-25T01:56:15.666Z,112
2023-05-25T01:57:22.551Z,111
2023-05-25T01:58:29.441Z,102
2023-05-25T01:59:36.215Z,116
2023-05-25T02:00:43.068Z,103
2023-05-25T02:01:52.864Z,104
2023-05-25T02:02:56.956Z,102
2023-05-25T02:04:03.757Z,105
2023-05-25T02:05:10.566Z,98
2023-05-25T02:06:17.371Z,101
2023-05-25T02:07:24.161Z,100
2023-05-25T02:08:31.092Z,101
2023-05-25T02:09:38.015Z,96
2023-05-25T02:10:44.679Z,102
2023-05-25T02:11:51.476Z,96
2023-05-25T02:12:58.303Z,96
2023-05-25T02:14:05.129Z,100
2023-05-25T02:15:11.938Z,93
2023-05-25T02:16:18.838Z,92
2023-05-25T02:17:25.603Z,97
2023-05-25T02:18:32.492Z,93
2023-05-25T02:19:39.381Z,98
2023-05-25T02:20:46.219Z,95
2023-05-25T02:21:53.014Z,101
2023-05-25T02:22:59.803Z,102
2023-05-25T02:24:06.563Z,108
2023-05-25T02:25:13.517Z,119
2023-05-25T02:26:20.218Z,118
2023-05-25T02:27:27.033Z,141
2023-05-25T02:28:34.069Z,136
2023-05-25T02:29:40.840Z,134
2023-05-25T02:30:47.754Z,131
2023-05-25T02:31:54.556Z,138
2023-05-25T02:33:01.510Z,128
2023-05-25T02:34:08.347Z,136
2023-05-25T02:35:15.069Z,128
2023-05-25T02:36:21.809Z,126
2023-05-25T02:37:28.646Z,131
2023-05-25T02:38:35.538Z,124
2023-05-25T02:39:42.470Z,123
2023-05-25T02:40:49.307Z,123
2023-05-25T02:41:56.055Z,118
2023-05-25T02:43:02.895Z,121
2023-05-25T02:44:09.716Z,116
2023-05-25T02:45:16.584Z,118
2023-05-25T02:46:23.392Z,120
2023-05-25T02:47:30.188Z,118
2023-05-25T02:48:36.969Z,119
2023-05-25T02:49:43.875Z,118
2023-05-25T02:50:50.806Z,122
2023-05-25T02:51:57.548Z,116
2023-05-25T02:53:04.324Z,113
2023-05-25T02:54:11.065Z,112
2023-05-25T02:55:17.937Z,120
2023-05-25T02:56:24.826Z,120
2023-05-25T02:57:31.508Z,119
2023-05-25T02:58:38.287Z,123
2023-05-25T02:59:45.138Z,124
2023-05-25T03:00:52.091Z,120
2023-05-25T03:01:58.905Z,121
2023-05-25T03:03:05.694Z,121
2023-05-25T03:04:12.372Z,117
2023-05-25T03:05:19.229Z,120
2023-05-25T03:06:26.242Z,121
2023-05-25T03:07:32.852Z,119
2023-05-25T03:08:39.675Z,118
2023-05-25T03:09:46.458Z,118
2023-05-25T03:10:53.469Z,112
2023-05-25T03:12:00.360Z,116
2023-05-25T03:13:07.141Z,120
2023-05-25T03:14:13.973Z,118
2023-05-25T03:15:20.774Z,116
2023-05-25T03:16:27.625Z,120
2023-05-25T03:17:34.444Z,116
2023-05-25T03:18:41.217Z,120
2023-05-25T03:19:48.097Z,118
2023-05-25T03:20:55.065Z,117
2023-05-25T03:22:02.010Z,118
2023-05-25T03:23:08.810Z,121
2023-05-25T03:24:15.627Z,116
2023-05-25T03:25:22.404Z,114
2023-05-25T03:26:29.288Z,117
2023-05-25T03:27:36.059Z,121
2023-05-25T03:28:42.874Z,115
2023-05-25T03:29:49.579Z,128
2023-05-25T03:30:56.369Z,121
2023-05-25T03:32:03.185Z,120
2023-05-25T03:33:10.205Z,120
2023-05-25T03:34:16.897Z,119
2023-05-25T03:35:23.629Z,118
2023-05-25T03:36:30.389Z,116
2023-05-25T03:37:37.216Z,117
2023-05-25T03:38:43.959Z,119
2023-05-25T03:39:50.692Z,120
2023-05-25T03:40:57.455Z,116
2023-05-25T03:42:04.309Z,109
2023-05-25T03:43:11.219Z,117
2023-05-25T03:44:17.928Z,117
2023-05-25T03:45:24.688Z,107
2023-05-25T03:46:31.581Z,113
2023-05-25T03:47:38.396Z,113
2023-05-25T03:48:45.156Z,120
2023-05-25T03:49:51.911Z,111
2023-05-25T03:50:58.625Z,116
2023-05-25T03:52:05.528Z,112
2023-05-25T03:53:12.235Z,116
2023-05-25T03:54:19.020Z,113
2023-05-25T03:55:25.810Z,107
2023-05-25T03:56:32.531Z,110
2023-05-25T03:57:39.380Z,107
2023-05-25T03:58:46.262Z,105
2023-05-25T03:59:52.892Z,105
2023-05-25T04:00:59.672Z,106
2023-05-25T04:02:06.720Z,106
2023-05-25T04:03:13.498Z,109
2023-05-25T04:04:20.271Z,108
2023-05-25T04:05:27.014Z,109
2023-05-25T04:06:33.812Z,112
2023-05-25T04:07:40.723Z,114
2023-05-25T04:08:47.430Z,119
2023-05-25T04:09:54.200Z,114
2023-05-25T04:11:00.952Z,116
2023-05-25T04:12:07.882Z,114
2023-05-25T04:13:14.662Z,112
2023-05-25T04:14:21.406Z,110
2023-05-25T04:15:28.152Z,117
2023-05-25T04:16:34.965Z,116
2023-05-25T04:17:41.756Z,118
2023-05-25T04:18:48.605Z,117
2023-05-25T04:19:55.362Z,118
2023-05-25T04:21:02.126Z,118
2023-05-25T04:22:08.891Z,114
2023-05-25T04:23:15.728Z,111
2023-05-25T04:24:22.446Z,119
2023-05-25T04:25:29.751Z,120
2023-05-25T04:26:35.959Z,114
2023-05-25T04:27:42.681Z,115
2023-05-25T04:28:49.465Z,116
2023-05-25T04:29:56.302Z,123
2023-05-25T04:31:03.100Z,127
2023-05-25T04:32:09.940Z,115
2023-05-25T04:33:16.728Z,118
2023-05-25T04:34:23.574Z,119
2023-05-25T04:35:30.307Z,119
2023-05-25T04:36:37.127Z,117
2023-05-25T04:37:43.885Z,117
2023-05-25T04:38:50.749Z,117
2023-05-25T04:39:57.622Z,114
2023-05-25T04:41:04.427Z,110
2023-05-25T04:42:11.311Z,115
2023-05-25T04:43:18.077Z,109
2023-05-25T04:44:24.905Z,118
2023-05-25T04:45:31.742Z,118
2023-05-25T04:46:38.481Z,117
2023-05-25T04:47:45.375Z,115
2023-05-25T04:48:52.198Z,110
2023-05-25T04:49:59.124Z,114
2023-05-25T04:51:05.908Z,118
2023-05-25T04:52:12.711Z,113
2023-05-25T04:53:19.457Z,118
2023-05-25T04:54:26.352Z,114
2023-05-25T04:55:33.227Z,120
2023-05-25T04:56:39.994Z,112
2023-05-25T04:57:46.800Z,113
2023-05-25T04:58:53.604Z,123
2023-05-25T05:00:00.397Z,111
2023-05-25T05:01:07.377Z,117
2023-05-25T05:02:14.199Z,118
2023-05-25T05:03:21.122Z,118
2023-05-25T05:04:27.884Z,120
2023-05-25T05:05:35.938Z,105
2023-05-25T05:06:42.681Z,113
2023-05-25T05:07:49.408Z,113
2023-05-25T05:08:56.201Z,120
2023-05-25T05:10:03.080Z,111
2023-05-25T05:11:10.152Z,116
2023-05-25T05:12:16.974Z,116
2023-05-25T05:13:23.774Z,112
2023-05-25T05:14:30.695Z,112
2023-05-25T05:15:37.605Z,107
2023-05-25T05:16:44.500Z,105
2023-05-25T05:17:51.204Z,110
2023-05-25T05:18:57.937Z,119
2023-05-25T05:20:04.794Z,109
2023-05-25T05:21:12.000Z,115
2023-05-25T05:22:18.734Z,113
2023-05-25T05:23:25.574Z,124
2023-05-25T05:24:32.348Z,115
2023-05-25T05:25:39.291Z,111
2023-05-25T05:26:57.071Z,117
2023-05-25T05:27:53.028Z,115
2023-05-25T05:28:59.907Z,112
2023-05-25T05:30:06.703Z,114
2023-05-25T05:31:13.738Z,107
2023-05-25T05:32:20.629Z,114
2023-05-25T05:33:27.505Z,114
2023-05-25T05:34:34.266Z,109
2023-05-25T05:35:41.080Z,112
2023-05-25T05:36:57.107Z,122
2023-05-25T05:37:54.652Z,110
2023-05-25T05:39:01.401Z,111
2023-05-25T05:40:08.153Z,118
2023-05-25T05:41:15.276Z,121
2023-05-25T05:42:22.140Z,110
2023-05-25T05:43:28.932Z,114
2023-05-25T05:44:35.907Z,121
2023-05-25T05:45:42.993Z,108
2023-05-25T05:46:49.569Z,109
2023-05-25T05:47:56.525Z,105
2023-05-25T05:49:03.170Z,105
2023-05-25T05:50:09.960Z,104
2023-05-25T05:51:16.770Z,106
2023-05-25T05:52:23.680Z,111
2023-05-25T05:53:30.435Z,104
2023-05-25T05:54:37.231Z,120
2023-05-25T05:55:44.200Z,125
2023-05-25T05:56:50.867Z,120
2023-05-25T05:57:57.781Z,120
2023-05-25T05:59:04.534Z,110
2023-05-25T06:00:11.327Z,104
2023-05-25T06:01:18.388Z,110
2023-05-25T06:02:25.359Z,110
2023-05-25T06:03:32.239Z,105
2023-05-25T06:04:38.947Z,106
2023-05-25T06:05:46.044Z,115
2023-05-25T06:06:52.546Z,112
2023-05-25T06:07:59.337Z,116
2023-05-25T06:09:06.090Z,117
2023-05-25T06:10:12.928Z,114
2023-05-25T06:11:19.676Z,113
2023-05-25T06:12:26.575Z,110
2023-05-25T06:13:33.348Z,106
2023-05-25T06:14:40.081Z,106
2023-05-25T06:15:47.270Z,108
2023-05-25T06:16:53.920Z,108
2023-05-25T06:18:00.763Z,102
2023-05-25T06:19:07.559Z,104
2023-05-25T06:20:14.487Z,108
2023-05-25T06:21:21.387Z,98
2023-05-25T06:22:28.175Z,96
2023-05-25T06:23:35.137Z,98
2023-05-25T06:24:41.873Z,103
2023-05-25T06:25:48.624Z,101
2023-05-25T06:26:55.399Z,103
2023-05-25T06:28:02.260Z,102
2023-05-25T06:29:09.118Z,105
2023-05-25T06:30:15.940Z,101
2023-05-25T06:31:22.819Z,105
2023-05-25T06:32:29.621Z,109
2023-05-25T06:33:36.417Z,105
2023-05-25T06:34:43.197Z,101
2023-05-25T06:35:51.082Z,100
2023-05-25T06:36:56.758Z,98
2023-05-25T06:38:03.794Z,100
2023-05-25T06:39:10.622Z,98
2023-05-25T06:40:17.398Z,102
2023-05-25T06:41:24.241Z,97
2023-05-25T06:42:30.996Z,100
2023-05-25T06:43:37.900Z,93
2023-05-25T06:44:44.735Z,94
2023-05-25T06:45:51.579Z,94
2023-05-25T06:46:58.402Z,91
2023-05-25T06:48:05.215Z,94
2023-05-25T06:49:12.032Z,87
2023-05-25T06:50:19.171Z,92
2023-05-25T06:51:25.920Z,85
2023-05-25T06:52:32.707Z,90
2023-05-25T06:53:39.469Z,92
2023-05-25T06:54:46.367Z,86
2023-05-25T06:55:53.117Z,83
2023-05-25T06:56:59.962Z,88
2023-05-25T06:58:06.766Z,77
2023-05-25T06:59:13.700Z,84
2023-05-25T07:00:20.516Z,83
2023-05-25T07:01:27.420Z,88
2023-05-25T07:02:34.296Z,84
2023-05-25T07:03:41.041Z,69
2023-05-25T07:04:48.062Z,76
2023-05-25T07:05:54.895Z,75
2023-05-25T07:07:01.670Z,76
2023-05-25T07:08:08.586Z,70
2023-05-25T07:09:15.387Z,64
2023-05-25T07:10:22.262Z,61
2023-05-25T07:11:29.104Z,62
2023-05-25T07:12:35.928Z,57
2023-05-25T07:13:42.848Z,51
2023-05-25T07:14:49.627Z,55
2023-05-25T07:15:56.501Z,49
2023-05-25T07:17:03.380Z,43
2023-05-25T07:18:10.132Z,46
2023-05-25T07:19:16.968Z,46
2023-05-25T07:20:23.765Z,41
2023-05-25T07:21:30.641Z,38
2023-05-25T07:22:37.389Z,40
2023-05-25T07:23:44.139Z,44
2023-05-25T07:24:50.957Z,43
2023-05-25T07:25:57.784Z,30
2023-05-25T07:27:04.665Z,31
2023-05-25T07:28:11.406Z,32
2023-05-25T07:29:18.268Z,30
2023-05-25T07:30:25.101Z,25
2023-05-25T07:31:31.955Z,27
2023-05-25T07:32:38.775Z,26
2023-05-25T07:33:45.452Z,25
2023-05-25T07:34:52.249Z,30
2023-05-25T07:35:59.125Z,25
2023-05-25T07:37:06.054Z,28
2023-05-25T07:38:12.786Z,25
2023-05-25T07:39:19.638Z,28
2023-05-25T07:40:26.447Z,26
2023-05-25T07:41:33.338Z,31
2023-05-25T07:42:40.224Z,26
2023-05-25T07:43:47.032Z,25
2023-05-25T07:44:53.998Z,25
2023-05-25T07:46:00.820Z,31
2023-05-25T07:47:07.799Z,37
2023-05-25T07:48:14.687Z,26
2023-05-25T07:49:21.380Z,30
2023-05-25T07:50:29.418Z,30
2023-05-25T07:51:35.943Z,31
2023-05-25T07:52:42.777Z,27
2023-05-25T07:53:49.588Z,31
2023-05-25T07:54:56.435Z,25
2023-05-25T07:56:03.188Z,25
2023-05-25T07:57:10.214Z,29
2023-05-25T07:58:17.042Z,29
2023-05-25T07:59:23.839Z,30
2023-05-25T08:00:30.655Z,26
2023-05-25T08:01:37.508Z,32
2023-05-25T08:02:44.442Z,34
2023-05-25T08:03:51.243Z,26
2023-05-25T08:04:58.087Z,25
2023-05-25T08:06:04.798Z,37
2023-05-25T08:07:11.586Z,40
2023-05-25T08:08:18.519Z,37
2023-05-25T08:09:25.343Z,33
2023-05-25T08:10:33.154Z,39
2023-05-25T08:11:39.957Z,43
2023-05-25T08:12:49.160Z,32
2023-05-25T08:13:53.651Z,39
2023-05-25T08:15:00.505Z,37
2023-05-25T08:16:07.479Z,39
2023-05-25T08:17:14.430Z,46
2023-05-25T08:18:21.080Z,38
2023-05-25T08:19:27.937Z,34
2023-05-25T08:20:37.932Z,36
2023-05-25T08:21:44.532Z,39
2023-05-25T08:22:51.268Z,33
2023-05-25T08:23:58.034Z,33
2023-05-25T08:25:04.833Z,41
2023-05-25T08:26:28.927Z,32
2023-05-25T08:27:18.535Z,34
2023-05-25T08:28:25.323Z,34
2023-05-25T08:29:32.142Z,34
2023-05-25T08:30:38.983Z,31
2023-05-25T08:31:45.670Z,38
2023-05-25T08:32:52.465Z,32
2023-05-25T08:33:59.312Z,31
2023-05-25T08:35:06.044Z,28
2023-05-25T08:36:12.925Z,25
2023-05-25T08:37:19.693Z,25
2023-05-25T08:38:26.429Z,35
2023-05-25T08:39:34.894Z,38
2023-05-25T08:40:40.081Z,33
2023-05-25T08:41:46.819Z,31
2023-05-25T08:42:53.624Z,33
2023-05-25T08:44:00.452Z,35
2023-05-25T08:45:07.213Z,36
2023-05-25T08:46:14.124Z,46
2023-05-25T08:47:23.764Z,35
2023-05-25T08:48:39.838Z,35
2023-05-25T08:49:37.358Z,31
2023-05-25T08:50:44.097Z,27
2023-05-25T08:51:50.957Z,26
2023-05-25T08:52:57.721Z,31
2023-05-25T08:54:04.508Z,30
2023-05-25T08:55:13.869Z,43
2023-05-25T08:56:20.710Z,38
2023-05-25T08:57:27.654Z,51
2023-05-25T08:58:42.304Z,51
2023-05-25T08:59:49.082Z,48
2023-05-25T09:01:03.580Z,43
2023-05-25T09:02:10.608Z,51
2023-05-25T09:03:27.606Z,53
2023-05-25T09:04:37.231Z,50
2023-05-25T09:05:44.248Z,49
2023-05-25T09:07:01.984Z,44
2023-05-25T09:07:57.537Z,40
2023-05-25T09:09:06.806Z,49
2023-05-25T09:10:16.172Z,43
2023-05-25T09:11:35.159Z,40
2023-05-25T09:12:29.592Z,40
2023-05-25T09:13:36.357Z,37
2023-05-25T09:14:43.126Z,37
2023-05-25T09:15:50.033Z,34
2023-05-25T09:16:56.857Z,29
2023-05-25T09:18:05.345Z,31
2023-05-25T09:19:10.379Z,31
2023-05-25T09:20:17.192Z,36
2023-05-25T09:21:24.007Z,29
2023-05-25T09:22:30.894Z,36
2023-05-25T09:23:37.697Z,48
2023-05-25T09:24:44.963Z,35
2023-05-25T09:25:51.354Z,45
2023-05-25T09:26:58.288Z,40
2023-05-25T09:28:24.586Z,46
2023-05-25T09:29:12.120Z,54
2023-05-25T09:30:18.879Z,64
2023-05-25T09:31:25.819Z,59
2023-05-25T09:32:32.703Z,62
2023-05-25T09:33:39.403Z,56
2023-05-25T09:34:46.152Z,68
2023-05-25T09:35:52.902Z,59
2023-05-25T09:37:00.022Z,55
2023-05-25T09:38:15.217Z,47
2023-05-25T09:39:22.028Z,60
2023-05-25T09:40:28.638Z,51
2023-05-25T09:41:38.290Z,51
2023-05-25T09:42:45.035Z,50
2023-05-25T09:44:01.821Z,47
2023-05-25T09:44:58.561Z,51
2023-05-25T09:46:05.656Z,47
2023-05-25T09:47:12.428Z,38
2023-05-25T09:48:19.176Z,35
2023-05-25T09:49:26.017Z,38
2023-05-25T09:50:32.825Z,40
2023-05-25T09:51:39.614Z,47
2023-05-25T09:52:46.433Z,34
2023-05-25T09:53:53.175Z,32
2023-05-25T09:55:00.004Z,34
2023-05-25T09:56:06.977Z,38
2023-05-25T09:57:13.771Z,30
2023-05-25T09:58:20.565Z,29
2023-05-25T09:59:27.342Z,28
2023-05-25T10:00:34.181Z,29
2023-05-25T10:01:41.989Z,28
2023-05-25T10:02:50.782Z,31
2023-05-25T10:04:04.054Z,33
2023-05-25T10:05:05.535Z,27
2023-05-25T10:06:12.348Z,30
2023-05-25T10:07:19.180Z,25
2023-05-25T10:08:28.709Z,26
2023-05-25T10:09:32.949Z,25
2023-05-25T10:10:39.730Z,25
2023-05-25T10:11:46.532Z,32
2023-05-25T10:12:53.350Z,26
2023-05-25T10:14:00.158Z,32
2023-05-25T10:15:06.985Z,30
2023-05-25T10:16:13.948Z,31
2023-05-25T10:17:23.863Z,34
2023-05-25T10:18:30.495Z,30
2023-05-25T10:19:37.362Z,36
2023-05-25T10:20:44.294Z,26
2023-05-25T10:21:51.000Z,28
2023-05-25T10:22:57.801Z,37
2023-05-25T10:24:04.699Z,27
2023-05-25T10:25:14.428Z,33
2023-05-25T10:26:29.069Z,32
2023-05-25T10:27:35.785Z,37
2023-05-25T10:28:42.600Z,42
2023-05-25T10:29:49.540Z,51
2023-05-25T10:30:56.517Z,39
2023-05-25T10:32:03.390Z,37
2023-05-25T10:33:15.096Z,25
2023-05-25T10:34:21.649Z,35
2023-05-25T10:35:28.548Z,30
2023-05-25T10:36:35.241Z,26
2023-05-25T10:37:42.109Z,25
2023-05-25T10:38:48.911Z,26
2023-05-25T10:39:55.729Z,27
2023-05-25T10:41:02.556Z,38
2023-05-25T10:42:09.473Z,34
2023-05-25T10:43:16.304Z,47
2023-05-25T10:44:23.168Z,32
2023-05-25T10:45:29.880Z,33
2023-05-25T10:46:36.821Z,35
2023-05-25T10:47:43.817Z,33
2023-05-25T10:48:50.538Z,31
2023-05-25T10:49:57.284Z,28
2023-05-25T10:51:04.078Z,28
2023-05-25T10:52:10.868Z,25
2023-05-25T10:53:17.678Z,31
2023-05-25T10:54:24.547Z,29
2023-05-25T10:55:33.856Z,28
2023-05-25T10:56:50.975Z,28
2023-05-25T10:58:09.060Z,41
2023-05-25T10:59:15.772Z,33
2023-05-25T11:00:27.797Z,34
2023-05-25T11:01:34.611Z,45
2023-05-25T11:02:41.294Z,45
2023-05-25T11:03:53.196Z,40
2023-05-25T11:04:59.976Z,31
2023-05-25T11:06:17.046Z,36
2023-05-25T11:07:23.824Z,33
2023-05-25T11:08:30.608Z,30
2023-05-25T11:09:47.559Z,34
2023-05-25T11:11:02.213Z,31
2023-05-25T11:12:09.110Z,30
2023-05-25T11:13:20.933Z,29
2023-05-25T11:14:32.803Z,29
2023-05-25T11:15:42.918Z,30
2023-05-25T11:16:49.361Z,28
2023-05-25T11:18:06.255Z,25
2023-05-25T11:19:12.998Z,27
2023-05-25T11:20:19.773Z,29
2023-05-25T11:21:29.277Z,25
2023-05-25T11:22:39.154Z,25
2023-05-25T11:23:46.030Z,27
2023-05-25T11:24:58.254Z,33
2023-05-25T11:26:05.161Z,25
2023-05-25T11:27:11.979Z,29
2023-05-25T11:28:18.739Z,27
2023-05-25T11:29:25.545Z,29
2023-05-25T11:30:32.347Z,28
2023-05-25T11:31:43.276Z,30
2023-05-25T11:32:46.008Z,33
2023-05-25T11:33:52.792Z,31
2023-05-25T11:34:59.574Z,41
2023-05-25T11:36:06.367Z,43
2023-05-25T11:37:13.261Z,36
2023-05-25T11:38:20.048Z,41
2023-05-25T11:39:26.808Z,37
2023-05-25T11:40:33.641Z,38
2023-05-25T11:41:40.594Z,42
2023-05-25T11:42:47.403Z,38
2023-05-25T11:43:54.157Z,36
2023-05-25T11:45:00.968Z,37
2023-05-25T11:46:07.991Z,32
2023-05-25T11:47:14.842Z,32
2023-05-25T11:48:21.644Z,34
2023-05-25T11:49:28.499Z,36
2023-05-25T11:50:35.313Z,32
2023-05-25T11:51:42.162Z,33
2023-05-25T11:52:48.980Z,36
2023-05-25T11:53:55.777Z,36
2023-05-25T11:55:02.662Z,33
2023-05-25T11:56:23.866Z,29
2023-05-25T11:57:21.372Z,44
2023-05-25T11:58:28.304Z,41
2023-05-25T11:59:40.405Z,40
2023-05-25T12:00:54.917Z,36
2023-05-25T12:02:01.768Z,50
2023-05-25T12:03:08.832Z,42
2023-05-25T12:04:15.610Z,41
2023-05-25T12:05:22.432Z,44
2023-05-25T12:06:29.151Z,43
2023-05-25T12:07:36.481Z,45
2023-05-25T12:08:45.885Z,48
2023-05-25T12:09:52.659Z,49
2023-05-25T12:11:07.452Z,54
2023-05-25T12:12:14.376Z,61
2023-05-25T12:13:21.150Z,54
2023-05-25T12:14:27.924Z,53
2023-05-25T12:15:34.659Z,58
2023-05-25T12:16:41.629Z,64
2023-05-25T12:17:48.412Z,57
2023-05-25T12:18:55.162Z,63
2023-05-25T12:20:02.066Z,59
2023-05-25T12:21:09.001Z,60
2023-05-25T12:22:18.628Z,73
2023-05-25T12:23:25.451Z,63
2023-05-25T12:24:32.284Z,61
2023-05-25T12:25:50.101Z,66
2023-05-25T12:26:45.849Z,70
2023-05-25T12:27:55.406Z,83
2023-05-25T12:29:12.241Z,74
2023-05-25T12:30:19.170Z,74
2023-05-25T12:31:26.061Z,76
2023-05-25T12:32:32.956Z,78
2023-05-25T12:33:39.682Z,77
2023-05-25T12:34:46.490Z,73
2023-05-25T12:35:53.330Z,71
2023-05-25T12:37:00.120Z,75
2023-05-25T12:38:06.958Z,71
2023-05-25T12:39:23.230Z,69
2023-05-25T12:40:33.430Z,66
2023-05-25T12:41:40.191Z,69
2023-05-25T12:42:49.794Z,74
2023-05-25T12:43:59.177Z,75
2023-05-25T12:45:06.138Z,79
2023-05-25T12:46:13.262Z,82
2023-05-25T12:47:20.236Z,85
2023-05-25T12:48:26.895Z,79
2023-05-25T12:49:33.728Z,80
2023-05-25T12:50:41.134Z,83
2023-05-25T12:51:52.489Z,90
2023-05-25T12:52:59.307Z,84
2023-05-25T12:54:06.066Z,87
2023-05-25T12:55:12.869Z,83
2023-05-25T12:56:38.452Z,83
2023-05-25T12:58:07.860Z,92
2023-05-25T12:59:14.653Z,86
2023-05-25T13:00:21.444Z,82
2023-05-25T13:01:28.268Z,83
2023-05-25T13:02:35.171Z,78
2023-05-25T13:03:42.163Z,80
2023-05-25T13:04:48.973Z,84
2023-05-25T13:05:55.822Z,83
2023-05-25T13:07:05.112Z,76
2023-05-25T13:08:11.833Z,80
2023-05-25T13:09:18.697Z,82
2023-05-25T13:10:25.641Z,79
2023-05-25T13:11:32.388Z,84
2023-05-25T13:12:39.187Z,84
2023-05-25T13:13:45.986Z,81
2023-05-25T13:14:52.765Z,81
2023-05-25T13:15:59.553Z,81
2023-05-25T13:17:06.353Z,78
2023-05-25T13:18:13.214Z,80
2023-05-25T13:19:20.174Z,72
2023-05-25T13:20:27.016Z,79
2023-05-25T13:21:33.775Z,78
2023-05-25T13:22:40.519Z,74
2023-05-25T13:23:47.291Z,74
2023-05-25T13:24:54.199Z,73
2023-05-25T13:26:01.151Z,74
2023-05-25T13:27:07.923Z,74
2023-05-25T13:28:14.696Z,72
2023-05-25T13:29:21.474Z,74
2023-05-25T13:30:28.317Z,77
2023-05-25T13:31:35.176Z,76
2023-05-25T13:32:42.036Z,80
2023-05-25T13:33:48.720Z,76
2023-05-25T13:34:55.520Z,77
2023-05-25T13:36:02.344Z,78
2023-05-25T13:37:12.205Z,76
2023-05-25T13:38:18.948Z,83
2023-05-25T13:39:25.775Z,76
2023-05-25T13:40:32.645Z,76
2023-05-25T13:41:39.363Z,76
2023-05-25T13:42:46.212Z,76
2023-05-25T13:43:53.035Z,83
2023-05-25T13:44:59.780Z,81
2023-05-25T13:46:06.653Z,81
2023-05-25T13:47:13.620Z,78
2023-05-25T13:48:20.479Z,77
2023-05-25T13:49:27.292Z,76
2023-05-25T13:50:34.079Z,68
2023-05-25T13:51:53.401Z,68
2023-05-25T13:53:00.308Z,72
2023-05-25T13:54:07.213Z,71
2023-05-25T13:55:13.988Z,74
2023-05-25T13:56:20.798Z,69
2023-05-25T13:57:27.868Z,67
2023-05-25T13:58:34.682Z,67
2023-05-25T13:59:41.489Z,65
2023-05-25T14:00:48.273Z,74
2023-05-25T14:01:56.111Z,67
2023-05-25T14:03:02.046Z,67
2023-05-25T14:04:08.792Z,63
2023-05-25T14:05:15.579Z,63
2023-05-25T14:06:22.387Z,61
2023-05-25T14:07:29.297Z,60
2023-05-25T14:08:36.164Z,68
2023-05-25T14:09:42.977Z,70
2023-05-25T14:10:49.756Z,70
2023-05-25T14:11:56.581Z,67
2023-05-25T14:13:03.566Z,71
2023-05-25T14:14:19.680Z,69
2023-05-25T14:15:17.336Z,70
2023-05-25T14:16:24.127Z,70
2023-05-25T14:17:30.955Z,70
2023-05-25T14:18:37.794Z,69
2023-05-25T14:19:44.574Z,69
2023-05-25T14:20:51.430Z,62
2023-05-25T14:23:05.070Z,69
2023-05-25T14:24:11.914Z,71
2023-05-25T14:25:18.606Z,80
2023-05-25T14:26:25.376Z,83
2023-05-25T14:27:32.194Z,84
2023-05-25T14:28:39.051Z,83
2023-05-25T14:29:45.842Z,80
2023-05-25T14:30:52.599Z,81
2023-05-25T14:31:59.464Z,84
2023-05-25T14:33:06.353Z,82
2023-05-25T14:34:13.129Z,84
2023-05-25T14:35:19.948Z,83
2023-05-25T14:36:26.788Z,84
2023-05-25T14:37:33.606Z,85
2023-05-25T14:38:40.532Z,89
2023-05-25T14:39:47.376Z,90
2023-05-25T14:40:54.099Z,88
2023-05-25T14:42:00.884Z,85
2023-05-25T14:43:07.767Z,91
2023-05-25T14:44:14.675Z,92
2023-05-25T14:45:21.442Z,94
2023-05-25T14:46:28.298Z,91
2023-05-25T14:47:35.081Z,92
2023-05-25T14:48:41.844Z,95
2023-05-25T14:49:48.643Z,92
2023-05-25T14:50:55.406Z,99
2023-05-25T14:52:02.193Z,102
2023-05-25T14:53:08.993Z,98
2023-05-25T14:54:15.877Z,112
2023-05-25T14:55:22.811Z,115
2023-05-25T14:56:29.592Z,113
2023-05-25T14:57:36.363Z,108
2023-05-25T14:58:43.157Z,106
2023-05-25T14:59:50.057Z,108
2023-05-25T15:00:56.814Z,109
2023-05-25T15:02:03.667Z,107
2023-05-25T15:03:10.550Z,112
2023-05-25T15:04:17.291Z,104
2023-05-25T15:05:24.208Z,104
2023-05-25T15:06:31.080Z,109
2023-05-25T15:07:37.870Z,105
2023-05-25T15:08:44.689Z,123
2023-05-25T15:09:51.545Z,111
2023-05-25T15:10:58.425Z,118
2023-05-25T15:12:05.246Z,118
2023-05-25T15:13:13.289Z,116
2023-05-25T15:14:18.936Z,115
2023-05-25T15:15:25.830Z,110
2023-05-25T15:16:32.766Z,108
2023-05-25T15:17:39.505Z,114
2023-05-25T15:18:46.231Z,109
2023-05-25T15:19:53.059Z,109
2023-05-25T15:20:59.886Z,111
2023-05-25T15:22:06.799Z,106
2023-05-25T15:23:13.651Z,108
2023-05-25T15:24:20.419Z,105
2023-05-25T15:26:34.091Z,104
2023-05-25T15:27:40.922Z,105
2023-05-25T15:28:47.707Z,102
2023-05-25T15:29:54.504Z,102
2023-05-25T15:31:03.070Z,102
2023-05-25T15:32:08.395Z,103
2023-05-25T15:33:15.012Z,104
2023-05-25T15:34:21.748Z,100
2023-05-25T15:35:28.484Z,100
2023-05-25T15:36:35.350Z,97
2023-05-25T15:37:42.284Z,100
2023-05-25T15:38:49.621Z,101
2023-05-25T15:39:55.876Z,101
2023-05-25T15:41:02.628Z,95
2023-05-25T15:42:09.585Z,107
2023-05-25T15:43:16.353Z,96
2023-05-25T15:44:23.203Z,97
2023-05-25T15:45:29.964Z,99
2023-05-25T15:46:36.891Z,100
2023-05-25T15:47:43.723Z,99
2023-05-25T15:48:50.466Z,100
2023-05-25T15:49:57.241Z,98
2023-05-25T15:51:04.036Z,98
2023-05-25T15:52:10.854Z,96
2023-05-25T15:53:17.597Z,103
2023-05-25T15:54:24.343Z,97
2023-05-25T15:55:31.115Z,97